Terminal Aerodrome Forecast
Issued by NWS Sioux Falls, SD

Home | Current Version | Previous Version | Graphics & Text | Print | Product List | Glossary Off
Versions: 1 2 3 4 5 6 7 8 9 10 11 12 13 14

000
FTUS43 KFSD 082300
TAFFSD
TAF
KFSD 082325Z 0900/0924 33012G18KT P6SM SCT070
     FM090100 35004KT P6SM SKC
     FM091100 18005KT P6SM SKC
     FM091500 24010KT P6SM SKC
     FM092100 34009KT P6SM BKN060=

USA.gov is the U.S. government's official web portal to all federal, state and local government web resources and services.